Time;durP1;ratioP1;P1;durP2;ratioP2;P2;SDS_P1;SDS_P2;PMS_P1;PMS_P2;Temp;Humidity;BMP_temperature;BMP_pressure;BME280_temperature;BME280_humidity;BME280_pressure;Samples;Min_cycle;Max_cycle;Signal;HPM_P1;HPM_P2
2023/12/12 00:01:57;;;;;;;3.88;2.50;;;;;;;6.24;90.69;100004.44;5117212;28;20043;-68
2023/12/12 00:04:24;;;;;;;5.13;2.50;;;;;;;6.21;90.51;100018.16;5116991;28;20047;-68
2023/12/12 00:06:52;;;;;;;3.58;2.50;;;;;;;6.14;91.17;100017.81;5117381;28;20489;-68
2023/12/12 00:09:19;;;;;;;2.90;2.60;;;;;;;6.15;91.18;100021.34;5118399;28;20048;-68
2023/12/12 00:11:45;;;;;;;3.40;2.60;;;;;;;6.14;90.96;100022.34;5118560;28;20514;-69
2023/12/12 00:14:12;;;;;;;3.83;2.35;;;;;;;6.12;91.01;100024.31;5119797;28;20093;-68
2023/12/12 00:16:38;;;;;;;4.57;2.83;;;;;;;6.14;91.43;100025.03;5119001;28;20044;-68
2023/12/12 00:19:06;;;;;;;4.30;3.00;;;;;;;6.18;90.80;100031.91;5118430;28;20403;-68
2023/12/12 00:21:33;;;;;;;4.28;2.85;;;;;;;6.04;91.53;100027.63;5119234;28;20104;-68
2023/12/12 00:23:59;;;;;;;5.07;3.20;;;;;;;6.15;91.32;100027.59;5117817;28;20047;-69
2023/12/12 00:26:26;;;;;;;3.55;3.05;;;;;;;6.07;91.85;100027.38;5118616;28;20479;-68
2023/12/12 00:28:52;;;;;;;4.47;3.10;;;;;;;6.08;91.38;100025.53;5100311;28;20043;-68
2023/12/12 00:31:19;;;;;;;6.30;3.30;;;;;;;5.98;92.00;100030.81;5118940;28;20042;-68
2023/12/12 00:33:45;;;;;;;5.57;2.92;;;;;;;6.13;92.18;100042.16;5118516;28;20040;-68
2023/12/12 00:36:12;;;;;;;5.80;2.97;;;;;;;6.19;91.28;100044.38;5119650;28;20126;-68
2023/12/12 00:38:39;;;;;;;5.45;3.13;;;;;;;6.10;91.02;100050.50;5118322;28;20138;-68
2023/12/12 00:41:06;;;;;;;8.75;3.33;;;;;;;6.14;90.56;100052.81;5118399;28;20433;-68
2023/12/12 00:43:33;;;;;;;4.18;3.05;;;;;;;6.23;90.54;100051.22;5118987;28;20060;-68
2023/12/12 00:46:00;;;;;;;5.35;3.88;;;;;;;6.22;90.63;100054.03;5119439;28;20510;-68
2023/12/12 00:48:27;;;;;;;4.32;3.30;;;;;;;6.29;90.01;100064.19;5119685;28;20059;-68
2023/12/12 00:50:55;;;;;;;5.10;2.90;;;;;;;6.24;90.25;100069.09;5118842;28;20069;-68
2023/12/12 00:53:21;;;;;;;3.72;2.58;;;;;;;6.20;90.80;100077.53;5114812;28;20048;-69
2023/12/12 00:55:49;;;;;;;5.00;2.58;;;;;;;6.17;90.55;100083.19;5118466;28;20056;-69
2023/12/12 00:58:15;;;;;;;3.75;2.55;;;;;;;6.00;91.71;100092.59;5120959;28;20047;-69
2023/12/12 01:00:42;;;;;;;3.53;2.22;;;;;;;6.20;90.85;100091.88;5121488;28;20477;-67
2023/12/12 01:03:08;;;;;;;3.45;2.10;;;;;;;6.11;91.15;100090.75;5120829;28;20040;-69
2023/12/12 01:05:35;;;;;;;4.70;2.50;;;;;;;6.00;91.60;100095.28;5121819;28;20043;-68
2023/12/12 01:08:02;;;;;;;3.92;2.78;;;;;;;5.89;92.51;100090.78;5120992;28;20043;-68
2023/12/12 01:10:29;;;;;;;5.25;3.10;;;;;;;6.00;91.81;100098.00;5121523;28;20051;-68
2023/12/12 01:12:55;;;;;;;4.93;3.03;;;;;;;6.13;91.04;100096.03;5121157;28;20047;-68
2023/12/12 01:15:22;;;;;;;4.65;2.72;;;;;;;6.07;91.19;100105.47;5120667;28;20040;-68
2023/12/12 01:17:49;;;;;;;3.88;2.80;;;;;;;6.21;90.47;100107.03;5121484;28;20044;-68
2023/12/12 01:20:15;;;;;;;5.72;3.10;;;;;;;6.14;90.84;100111.19;5120479;28;20410;-68
2023/12/12 01:22:42;;;;;;;5.05;3.13;;;;;;;6.08;91.11;100117.94;5121539;28;20040;-68
2023/12/12 01:25:09;;;;;;;3.53;2.55;;;;;;;5.98;91.46;100118.75;5120434;28;20067;-69
2023/12/12 01:27:35;;;;;;;6.30;3.15;;;;;;;6.05;91.08;100122.69;5120113;28;20111;-69
2023/12/12 01:30:02;;;;;;;4.50;3.25;;;;;;;6.05;91.02;100125.38;5120514;28;20444;-67
2023/12/12 01:32:29;;;;;;;7.50;3.22;;;;;;;5.96;91.78;100126.09;5120854;28;20101;-68
2023/12/12 01:34:55;;;;;;;3.67;2.63;;;;;;;5.88;92.31;100131.22;5120682;28;20048;-68
2023/12/12 01:37:22;;;;;;;6.55;3.63;;;;;;;5.79;92.49;100136.38;5121247;28;20066;-68
2023/12/12 01:39:49;;;;;;;4.93;3.50;;;;;;;5.80;93.01;100134.56;5120107;28;20054;-69
2023/12/12 01:42:16;;;;;;;4.53;2.97;;;;;;;5.96;92.32;100136.88;5120248;28;20133;-69
2023/12/12 01:44:42;;;;;;;5.40;3.20;;;;;;;6.07;91.64;100137.78;5125230;28;20097;-69
2023/12/12 01:47:10;;;;;;;6.43;3.38;;;;;;;6.00;91.87;100146.44;5124383;28;20039;-67
2023/12/12 01:49:37;;;;;;;10.32;3.28;;;;;;;6.08;91.30;100144.00;5124593;28;20052;-67
2023/12/12 01:52:04;;;;;;;4.93;3.58;;;;;;;5.92;92.03;100143.50;5124510;28;20047;-70
2023/12/12 01:54:36;;;;;;;6.22;3.30;;;;;;;5.99;91.82;100139.34;5125382;28;20047;-69
2023/12/12 01:57:03;;;;;;;7.32;3.28;;;;;;;5.90;92.44;100142.75;5125001;28;20044;-68
2023/12/12 01:59:30;;;;;;;4.88;3.15;;;;;;;5.85;92.20;100138.56;5125412;28;20100;-68
2023/12/12 02:01:57;;;;;;;4.65;3.72;;;;;;;5.81;92.97;100144.34;5125926;28;20036;-69
2023/12/12 02:04:24;;;;;;;6.32;3.72;;;;;;;5.76;93.01;100133.91;5125116;28;20168;-69
2023/12/12 02:07:23;;;;;;;10.45;4.18;;;;;;;5.72;93.39;100131.59;5124562;28;20043;-68
2023/12/12 02:09:52;;;;;;;6.05;3.38;;;;;;;5.85;92.95;100145.78;5125296;28;20506;-69
2023/12/12 02:12:18;;;;;;;5.57;4.22;;;;;;;5.79;93.28;100141.78;5125905;28;20051;-70
2023/12/12 02:14:45;;;;;;;8.07;5.40;;;;;;;5.78;93.28;100136.47;5125103;28;20100;-68
2023/12/12 02:17:12;;;;;;;6.47;3.88;;;;;;;5.71;93.49;100141.50;5125877;28;20039;-68
2023/12/12 02:19:38;;;;;;;5.28;4.00;;;;;;;5.76;93.53;100151.88;5125552;28;20407;-68
2023/12/12 02:22:05;;;;;;;6.50;4.25;;;;;;;5.76;93.73;100141.97;5125358;28;20525;-68
2023/12/12 02:24:32;;;;;;;7.78;4.50;;;;;;;5.81;93.10;100144.34;5124435;27;20193;-68
2023/12/12 02:26:58;;;;;;;6.97;4.70;;;;;;;5.68;93.39;100147.09;5123028;28;20104;-68
2023/12/12 02:29:25;;;;;;;7.38;4.82;;;;;;;5.67;93.92;100153.47;5123013;28;20100;-67
2023/12/12 02:31:51;;;;;;;8.18;4.95;;;;;;;5.65;94.14;100147.34;5124321;28;20043;-68
2023/12/12 02:34:19;;;;;;;8.45;4.65;;;;;;;5.58;94.35;100156.84;5125315;28;20142;-68
2023/12/12 02:36:45;;;;;;;6.95;5.53;;;;;;;5.66;94.12;100154.44;5124187;28;20044;-68
2023/12/12 02:39:13;;;;;;;7.03;5.47;;;;;;;5.50;94.42;100153.88;5122429;28;20065;-67
2023/12/12 02:41:39;;;;;;;9.57;5.90;;;;;;;5.59;94.50;100150.50;5121521;28;20514;-67
2023/12/12 02:44:06;;;;;;;10.15;6.30;;;;;;;5.65;94.01;100151.88;5121643;28;20047;-69
2023/12/12 02:46:32;;;;;;;11.23;6.80;;;;;;;5.62;94.38;100154.81;5119909;28;20073;-68
2023/12/12 02:48:59;;;;;;;12.65;7.00;;;;;;;5.52;94.77;100151.97;5119283;28;20048;-68
2023/12/12 02:51:26;;;;;;;9.35;6.75;;;;;;;5.58;94.80;100151.47;5119158;28;20117;-68
2023/12/12 02:53:52;;;;;;;12.30;6.70;;;;;;;5.67;94.59;100150.75;5111371;28;20047;-69
2023/12/12 02:56:19;;;;;;;9.98;6.93;;;;;;;5.68;94.60;100157.84;5119484;28;20113;-69
2023/12/12 02:58:45;;;;;;;11.95;7.40;;;;;;;5.66;94.64;100165.19;5118420;28;20067;-68
2023/12/12 03:01:12;;;;;;;13.05;7.55;;;;;;;5.69;94.52;100156.88;5099236;28;20036;-68
2023/12/12 03:03:40;;;;;;;8.75;6.88;;;;;;;5.90;93.35;100158.91;5118387;28;20488;-67
2023/12/12 03:06:07;;;;;;;10.73;6.53;;;;;;;5.94;93.27;100168.44;5116800;28;20044;-68
2023/12/12 03:08:33;;;;;;;10.23;6.13;;;;;;;5.97;92.97;100168.19;5115641;28;20490;-68
2023/12/12 03:11:01;;;;;;;8.45;6.20;;;;;;;5.73;93.51;100165.59;5099169;28;20055;-68
2023/12/12 03:13:28;;;;;;;9.35;5.80;;;;;;;5.79;93.99;100160.59;5116395;28;20560;-68
2023/12/12 03:15:55;;;;;;;13.88;4.30;;;;;;;5.89;93.78;100165.25;5116981;28;20492;-68
2023/12/12 03:18:22;;;;;;;6.95;3.28;;;;;;;5.91;93.53;100163.31;5116988;28;20039;-68
2023/12/12 03:20:48;;;;;;;5.82;2.97;;;;;;;5.93;93.40;100155.97;5118834;28;20479;-68
2023/12/12 03:23:15;;;;;;;4.47;2.42;;;;;;;5.88;93.46;100163.53;5116477;28;20039;-68
2023/12/12 03:25:41;;;;;;;3.78;1.73;;;;;;;5.88;93.27;100159.00;5116747;28;20055;-68
2023/12/12 03:28:08;;;;;;;2.13;1.30;;;;;;;5.98;92.76;100159.16;5117296;28;20111;-68
2023/12/12 03:30:35;;;;;;;4.22;1.60;;;;;;;5.88;93.18;100160.84;5100431;28;20055;-68
2023/12/12 03:33:01;;;;;;;3.33;1.63;;;;;;;5.82;93.45;100168.44;5117863;28;20075;-68
2023/12/12 03:35:28;;;;;;;2.40;1.30;;;;;;;5.75;93.71;100172.56;5118312;28;20411;-68
2023/12/12 03:37:54;;;;;;;4.85;1.65;;;;;;;5.90;93.59;100167.84;5099081;28;20051;-66
2023/12/12 03:40:21;;;;;;;4.97;1.63;;;;;;;6.02;92.69;100176.78;5116601;28;20070;-67
2023/12/12 03:42:47;;;;;;;4.63;1.75;;;;;;;5.79;93.46;100165.09;5117579;28;20043;-66
2023/12/12 03:45:14;;;;;;;4.03;1.67;;;;;;;5.97;92.99;100179.81;5117404;28;20098;-67
2023/12/12 03:47:41;;;;;;;5.80;1.63;;;;;;;5.85;92.91;100176.25;5117387;28;20063;-66
2023/12/12 03:50:09;;;;;;;3.85;1.52;;;;;;;5.90;93.04;100170.53;5116274;28;20455;-67
2023/12/12 03:52:36;;;;;;;5.60;1.80;;;;;;;5.76;93.72;100166.19;5116219;28;20063;-66
2023/12/12 03:55:05;;;;;;;5.50;1.77;;;;;;;5.71;94.01;100173.78;5116464;28;20104;-67
2023/12/12 03:57:31;;;;;;;4.28;2.03;;;;;;;5.91;93.19;100168.69;5118248;28;20063;-67
2023/12/12 03:59:58;;;;;;;4.15;2.13;;;;;;;6.02;92.67;100176.78;5117488;28;20081;-66
2023/12/12 04:02:25;;;;;;;6.05;2.30;;;;;;;6.02;92.60;100180.34;5117683;28;20050;-66
2023/12/12 04:04:51;;;;;;;5.40;2.63;;;;;;;6.04;92.23;100180.22;5116941;28;20051;-67
2023/12/12 04:07:18;;;;;;;11.85;2.80;;;;;;;5.84;92.68;100174.53;5117311;28;20098;-67
2023/12/12 04:09:45;;;;;;;5.82;2.63;;;;;;;5.85;92.50;100176.25;5117473;28;20039;-67
2023/12/12 04:12:12;;;;;;;7.38;2.70;;;;;;;5.80;93.24;100178.47;5117475;28;20039;-67
2023/12/12 04:14:38;;;;;;;9.77;2.88;;;;;;;5.67;93.55;100174.97;5117557;28;20487;-67
2023/12/12 04:17:06;;;;;;;6.28;2.97;;;;;;;5.79;92.94;100176.75;5117869;28;20047;-66
2023/12/12 04:19:32;;;;;;;9.13;4.03;;;;;;;5.77;92.78;100169.75;5116936;28;20044;-67
2023/12/12 04:22:00;;;;;;;9.13;2.92;;;;;;;5.86;92.32;100185.19;5117264;28;20051;-67
2023/12/12 04:24:26;;;;;;;8.95;3.33;;;;;;;5.75;92.94;100180.63;5117539;28;20063;-66
2023/12/12 04:26:53;;;;;;;8.93;3.40;;;;;;;5.77;92.74;100183.22;5117886;28;20028;-66
2023/12/12 04:29:23;;;;;;;8.48;3.22;;;;;;;5.70;93.13;100187.34;5118218;28;20528;-67
2023/12/12 04:31:50;;;;;;;9.57;3.38;;;;;;;5.65;93.60;100190.41;5118268;28;20096;-67
2023/12/12 04:34:17;;;;;;;14.63;3.30;;;;;;;5.79;93.00;100187.53;5117508;28;20046;-67
2023/12/12 04:36:43;;;;;;;9.43;3.25;;;;;;;5.85;92.28;100181.63;5117803;28;20054;-66
2023/12/12 04:39:17;;;;;;;11.38;4.00;;;;;;;5.64;92.98;100191.38;5116502;28;20047;-66
2023/12/12 04:41:44;;;;;;;16.17;3.60;;;;;;;5.77;92.14;100189.44;5118590;28;20123;-67
2023/12/12 04:44:10;;;;;;;14.13;3.78;;;;;;;5.67;93.01;100191.13;5117726;28;20051;-67
2023/12/12 04:46:37;;;;;;;11.38;3.58;;;;;;;5.72;93.23;100194.34;5114818;28;20138;-67
2023/12/12 04:49:07;;;;;;;9.57;3.22;;;;;;;5.92;91.70;100202.72;5099112;28;20043;-67
2023/12/12 04:51:34;;;;;;;11.95;3.30;;;;;;;5.89;91.26;100195.75;5117531;28;20491;-67
2023/12/12 04:54:01;;;;;;;9.32;3.10;;;;;;;5.82;91.79;100195.34;5117124;28;20422;-67
2023/12/12 04:56:27;;;;;;;19.70;3.63;;;;;;;5.73;92.26;100189.81;5116647;28;20100;-67
2023/12/12 04:58:54;;;;;;;15.77;3.78;;;;;;;5.68;92.65;100195.53;5116985;28;20104;-68
2023/12/12 05:01:22;;;;;;;13.57;4.53;;;;;;;5.67;92.94;100199.19;5116507;28;20039;-67
2023/12/12 05:03:49;;;;;;;13.98;4.05;;;;;;;5.76;92.18;100193.13;5116862;28;20066;-67
2023/12/12 05:06:15;;;;;;;9.15;3.63;;;;;;;5.75;91.85;100190.53;5116876;28;20043;-67
2023/12/12 05:08:43;;;;;;;16.92;4.15;;;;;;;5.92;90.93;100198.19;5117918;28;20135;-69
2023/12/12 05:11:13;;;;;;;7.75;3.25;;;;;;;5.75;91.58;100196.78;5118686;28;20044;-69
2023/12/12 05:13:40;;;;;;;12.95;3.47;;;;;;;5.82;91.49;100197.19;5118914;28;20044;-68
2023/12/12 05:16:08;;;;;;;12.80;3.63;;;;;;;5.73;91.82;100197.88;5119076;28;20054;-69
2023/12/12 05:18:56;;;;;;;13.98;3.70;;;;;;;5.64;92.15;100199.44;5122061;28;20483;-67
2023/12/12 05:21:23;;;;;;;10.82;3.28;;;;;;;5.54;92.08;100196.59;5123521;28;20044;-69
2023/12/12 05:23:50;;;;;;;14.85;3.50;;;;;;;5.64;92.33;100203.97;5124179;28;20047;-67
2023/12/12 05:26:20;;;;;;;11.07;2.90;;;;;;;5.66;92.22;100199.31;5124094;28;20043;-68
2023/12/12 05:28:46;;;;;;;9.38;2.83;;;;;;;5.75;91.64;100212.94;5124546;28;20043;-69
2023/12/12 05:31:15;;;;;;;15.00;3.05;;;;;;;5.69;91.71;100208.00;5123768;28;20039;-68
2023/12/12 05:33:42;;;;;;;9.88;2.95;;;;;;;5.77;91.26;100210.13;5127389;28;20071;-70
2023/12/12 05:36:09;;;;;;;12.68;2.80;;;;;;;5.68;91.68;100208.97;5128680;28;20044;-70
2023/12/12 05:38:36;;;;;;;7.70;3.00;;;;;;;5.59;91.97;100212.38;5129403;28;20069;-70
2023/12/12 05:41:06;;;;;;;13.45;3.10;;;;;;;5.63;91.87;100215.72;5128263;28;20074;-71
2023/12/12 05:43:33;;;;;;;13.07;3.17;;;;;;;5.66;91.39;100219.00;5128067;28;20080;-70
2023/12/12 05:45:59;;;;;;;14.30;2.90;;;;;;;5.71;90.71;100222.22;5127015;28;20054;-70
2023/12/12 05:48:27;;;;;;;12.45;2.70;;;;;;;5.82;89.99;100222.25;5127577;28;20043;-71
2023/12/12 05:50:54;;;;;;;8.90;2.80;;;;;;;5.77;90.64;100234.34;5126473;28;20124;-69
2023/12/12 05:53:21;;;;;;;12.55;2.88;;;;;;;5.71;91.02;100224.06;5122240;28;20047;-72
2023/12/12 05:55:48;;;;;;;10.07;2.80;;;;;;;5.73;91.05;100227.50;5122546;28;20427;-71
2023/12/12 05:58:15;;;;;;;7.75;2.95;;;;;;;5.68;91.11;100238.59;5124813;28;20043;-69
2023/12/12 06:00:42;;;;;;;12.52;3.17;;;;;;;5.57;91.06;100231.31;5125700;28;20058;-72
2023/12/12 06:03:08;;;;;;;12.93;2.95;;;;;;;5.56;91.79;100237.69;5124572;28;20074;-71
2023/12/12 06:05:35;;;;;;;11.98;3.28;;;;;;;5.70;91.67;100238.47;5125441;28;20103;-72
2023/12/12 06:08:01;;;;;;;12.20;3.03;;;;;;;5.76;90.95;100246.94;5124728;28;20048;-69
2023/12/12 06:10:28;;;;;;;15.43;3.83;;;;;;;5.76;90.97;100246.94;5125429;28;20145;-70
2023/12/12 06:12:55;;;;;;;14.05;3.72;;;;;;;5.81;90.79;100252.00;5125586;28;20048;-69
2023/12/12 06:15:21;;;;;;;13.57;3.78;;;;;;;5.60;91.43;100250.91;5124934;28;20054;-70
2023/12/12 06:17:48;;;;;;;17.52;4.35;;;;;;;5.50;92.41;100253.41;5125323;28;20047;-70
2023/12/12 06:20:14;;;;;;;10.75;3.97;;;;;;;5.59;92.29;100260.81;5122808;28;20143;-70
2023/12/12 06:22:41;;;;;;;20.45;5.60;;;;;;;5.62;91.42;100257.03;5123302;28;20043;-70
2023/12/12 06:25:08;;;;;;;13.32;4.90;;;;;;;5.71;91.03;100250.97;5123734;28;20051;-70
2023/12/12 06:27:35;;;;;;;8.80;4.40;;;;;;;5.57;91.88;100260.06;5123247;28;20740;-70
2023/12/12 06:30:02;;;;;;;13.40;5.13;;;;;;;5.58;91.91;100269.84;5122758;28;20047;-70
2023/12/12 06:32:28;;;;;;;18.35;4.78;;;;;;;5.73;91.38;100278.63;5122884;28;20491;-70
2023/12/12 06:34:55;;;;;;;14.93;5.25;;;;;;;5.44;92.68;100278.09;5121798;28;20044;-71
2023/12/12 06:37:22;;;;;;;13.35;4.95;;;;;;;5.58;92.16;100278.78;5123090;28;20069;-70
2023/12/12 06:39:49;;;;;;;13.55;5.22;;;;;;;5.52;92.32;100275.69;5122735;28;20043;-70
2023/12/12 06:42:15;;;;;;;17.58;5.28;;;;;;;5.46;92.88;100276.16;5121916;28;20046;-70
2023/12/12 06:44:42;;;;;;;18.20;5.63;;;;;;;5.29;93.37;100280.94;5120917;28;20491;-70
2023/12/12 06:47:09;;;;;;;14.05;6.03;;;;;;;5.39;93.26;100282.94;5120782;28;20039;-70
2023/12/12 06:49:35;;;;;;;20.60;5.57;;;;;;;5.42;93.19;100286.28;5121834;28;20046;-70
2023/12/12 06:52:03;;;;;;;12.70;5.93;;;;;;;5.43;93.28;100292.53;5121612;28;20048;-70
2023/12/12 06:54:30;;;;;;;17.67;6.25;;;;;;;5.43;93.43;100287.16;5121857;28;20050;-70
2023/12/12 06:56:56;;;;;;;19.08;6.50;;;;;;;5.31;93.44;100288.88;5122186;28;20548;-71
2023/12/12 06:59:23;;;;;;;20.30;5.90;;;;;;;5.44;93.71;100286.16;5123015;28;20047;-70
2023/12/12 07:01:51;;;;;;;18.15;6.53;;;;;;;5.47;93.25;100284.09;5121857;28;20449;-70
2023/12/12 07:04:17;;;;;;;17.90;6.78;;;;;;;5.39;93.20;100296.41;5121479;28;20043;-70
2023/12/12 07:06:44;;;;;;;21.15;7.55;;;;;;;5.42;93.08;100293.47;5121137;28;20040;-70
2023/12/12 07:09:12;;;;;;;23.27;11.68;;;;;;;5.35;93.41;100292.22;5121641;28;20051;-70
2023/12/12 07:11:39;;;;;;;32.28;10.45;;;;;;;5.41;93.50;100299.81;5121374;28;20109;-70
2023/12/12 07:14:05;;;;;;;17.25;7.65;;;;;;;5.43;93.17;100297.91;5120560;28;20047;-70
2023/12/12 07:16:32;;;;;;;24.38;7.90;;;;;;;5.40;92.88;100298.97;5119990;28;20146;-69
2023/12/12 07:18:59;;;;;;;14.77;6.50;;;;;;;5.46;93.10;100292.28;5118963;28;20059;-69
2023/12/12 07:21:25;;;;;;;20.13;6.88;;;;;;;5.53;92.54;100297.09;5119005;28;20050;-69
2023/12/12 07:23:53;;;;;;;16.58;6.53;;;;;;;5.45;92.78;100299.50;5119908;28;20043;-70
2023/12/12 07:26:22;;;;;;;12.63;5.57;;;;;;;5.47;92.74;100296.69;5119393;28;20043;-70
2023/12/12 07:28:49;;;;;;;23.63;6.65;;;;;;;5.44;92.70;100299.63;5119347;28;20035;-70
2023/12/12 07:31:16;;;;;;;19.98;6.80;;;;;;;5.37;93.20;100293.81;5118694;28;20048;-70
2023/12/12 07:33:43;;;;;;;16.48;6.75;;;;;;;5.44;92.85;100302.31;5101437;28;20057;-70
2023/12/12 07:36:10;;;;;;;19.05;6.63;;;;;;;5.38;93.05;100300.06;5119377;28;20043;-70
2023/12/12 07:38:36;;;;;;;20.30;7.60;;;;;;;5.43;92.91;100300.59;5119477;28;20039;-70
2023/12/12 07:41:03;;;;;;;20.20;7.20;;;;;;;5.46;92.69;100297.66;5117906;28;20047;-70
2023/12/12 07:43:30;;;;;;;21.58;7.18;;;;;;;5.50;92.54;100299.16;5118259;28;20043;-69
2023/12/12 07:45:56;;;;;;;13.60;6.18;;;;;;;5.49;92.56;100305.50;5119106;28;20043;-71
2023/12/12 07:48:23;;;;;;;17.35;5.82;;;;;;;5.60;91.83;100305.56;5101247;28;20043;-70
2023/12/12 07:50:50;;;;;;;13.10;5.85;;;;;;;5.50;92.27;100296.47;5101005;28;20054;-70
2023/12/12 07:53:18;;;;;;;15.15;5.97;;;;;;;5.40;92.76;100300.78;5118472;28;20044;-70
2023/12/12 07:55:44;;;;;;;14.90;6.60;;;;;;;5.58;92.15;100294.06;5119358;28;20040;-70
2023/12/12 07:58:11;;;;;;;16.77;6.80;;;;;;;5.48;91.99;100293.03;5118730;28;20043;-70
2023/12/12 08:00:38;;;;;;;23.75;6.38;;;;;;;5.47;92.14;100291.31;5118907;28;20061;-70
2023/12/12 08:03:05;;;;;;;25.50;5.88;;;;;;;5.43;92.16;100303.28;5117524;28;20047;-70
2023/12/12 08:05:32;;;;;;;29.95;6.38;;;;;;;5.48;92.27;100296.56;5118221;28;20551;-69
2023/12/12 08:08:03;;;;;;;16.52;5.53;;;;;;;5.58;91.64;100302.13;5117238;28;20055;-69
2023/12/12 08:10:31;;;;;;;;;;;;;;;5.57;91.48;100300.41;5100189;28;20067;-70
2023/12/12 08:12:58;;;;;;;33.15;7.07;;;;;;;5.56;91.18;100309.47;5118262;28;19946;-70
2023/12/12 08:15:24;;;;;;;20.08;6.20;;;;;;;5.45;91.71;100312.94;5117130;28;20467;-69
2023/12/12 08:17:51;;;;;;;21.20;6.45;;;;;;;5.66;90.77;100313.19;5117859;28;20043;-69
2023/12/12 08:20:18;;;;;;;14.90;5.72;;;;;;;5.69;90.73;100310.25;5117048;28;20063;-70
2023/12/12 08:22:45;;;;;;;24.35;5.88;;;;;;;5.72;90.06;100317.25;5117929;28;20054;-70
2023/12/12 08:25:11;;;;;;;14.43;5.80;;;;;;;5.77;89.44;100315.06;5117483;28;20109;-70
2023/12/12 08:27:38;;;;;;;23.67;6.30;;;;;;;5.71;90.09;100312.84;5118081;28;20574;-70
2023/12/12 08:30:05;;;;;;;21.55;5.65;;;;;;;5.72;90.04;100322.66;5116710;28;20047;-71
2023/12/12 08:32:33;;;;;;;14.20;5.18;;;;;;;5.71;90.32;100323.63;5115966;28;20044;-70
2023/12/12 08:34:59;;;;;;;22.65;5.55;;;;;;;5.81;89.88;100317.44;5115216;28;20458;-70
2023/12/12 08:37:26;;;;;;;18.65;5.78;;;;;;;5.75;90.24;100320.56;5116791;28;20054;-70
2023/12/12 08:39:53;;;;;;;24.45;6.10;;;;;;;5.72;90.49;100326.19;5115591;28;20044;-70
2023/12/12 08:42:20;;;;;;;12.43;5.00;;;;;;;5.65;90.97;100324.94;5115427;28;20495;-72
2023/12/12 08:44:47;;;;;;;11.77;4.85;;;;;;;5.83;89.35;100323.56;5113445;28;20491;-70
2023/12/12 08:47:15;;;;;;;17.92;5.55;;;;;;;5.83;89.67;100322.69;5115648;28;20047;-71
2023/12/12 08:49:42;;;;;;;16.55;5.47;;;;;;;5.88;89.05;100325.03;5115001;28;20044;-71
2023/12/12 08:52:09;;;;;;;14.82;4.93;;;;;;;5.88;89.42;100330.41;5114200;28;20663;-71
2023/12/12 08:54:38;;;;;;;13.55;4.38;;;;;;;5.68;90.22;100334.59;5115578;28;20043;-71
2023/12/12 08:57:05;;;;;;;18.48;4.72;;;;;;;5.76;90.10;100338.44;5097597;28;20073;-71
2023/12/12 08:59:31;;;;;;;15.27;4.32;;;;;;;5.72;90.21;100336.97;5115195;28;20077;-71
2023/12/12 09:01:58;;;;;;;15.30;5.00;;;;;;;5.89;89.64;100337.50;5115402;28;20108;-71
2023/12/12 09:04:25;;;;;;;22.52;5.05;;;;;;;5.95;88.19;100334.38;5115380;28;20131;-72
2023/12/12 09:06:52;;;;;;;14.80;4.45;;;;;;;5.92;88.84;100332.78;5114481;28;20135;-72
2023/12/12 09:09:19;;;;;;;11.27;4.50;;;;;;;5.79;89.71;100330.16;5115369;28;20407;-71
2023/12/12 09:11:46;;;;;;;23.15;5.38;;;;;;;5.92;89.08;100337.31;5110073;28;20112;-73
2023/12/12 09:14:15;;;;;;;17.80;4.20;;;;;;;5.99;89.06;100341.25;5109756;28;20039;-72
2023/12/12 09:16:42;;;;;;;11.48;4.00;;;;;;;6.00;88.68;100351.03;5110554;28;20048;-73
2023/12/12 09:19:11;;;;;;;11.55;3.92;;;;;;;5.91;89.17;100340.97;5110001;28;20051;-72
2023/12/12 09:21:38;;;;;;;16.63;4.47;;;;;;;5.95;88.94;100342.44;5110115;28;20051;-73
2023/12/12 09:24:05;;;;;;;13.10;4.03;;;;;;;5.80;89.57;100344.47;5109905;28;20391;-72
2023/12/12 09:26:37;;;;;;;15.45;4.28;;;;;;;5.98;88.53;100343.09;5109930;28;20035;-72
2023/12/12 09:29:11;;;;;;;17.70;4.50;;;;;;;5.91;88.84;100336.44;5109197;28;20055;-72
2023/12/12 09:31:37;;;;;;;13.77;4.30;;;;;;;6.05;87.21;100340.78;5109696;28;20063;-72
2023/12/12 09:34:04;;;;;;;13.90;4.45;;;;;;;6.01;88.32;100336.59;5110037;28;20152;-72
2023/12/12 09:36:30;;;;;;;9.88;4.10;;;;;;;6.06;88.24;100339.78;5092259;28;20040;-72
2023/12/12 09:38:58;;;;;;;16.58;4.15;;;;;;;6.01;87.60;100337.47;5109828;28;20051;-72
2023/12/12 09:41:25;;;;;;;13.88;4.55;;;;;;;5.95;88.60;100335.22;5110965;28;20479;-72
2023/12/12 09:43:52;;;;;;;16.50;4.45;;;;;;;5.90;89.08;100336.56;5111140;28;20055;-70
2023/12/12 09:46:23;;;;;;;12.35;3.65;;;;;;;5.83;89.11;100345.09;5115969;28;20060;-71
2023/12/12 09:48:50;;;;;;;13.93;4.43;;;;;;;5.93;89.10;100341.72;5116037;28;20388;-71
2023/12/12 09:51:17;;;;;;;13.30;3.70;;;;;;;6.06;88.42;100340.66;5115812;28;20039;-71
2023/12/12 09:53:46;;;;;;;9.88;3.58;;;;;;;6.23;86.68;100335.81;5108598;28;20109;-72
2023/12/12 09:56:17;;;;;;;7.68;3.50;;;;;;;6.03;87.32;100335.50;5115240;28;20530;-72
2023/12/12 09:58:46;;;;;;;12.77;3.90;;;;;;;6.13;87.40;100335.66;5110369;28;20051;-74
2023/12/12 10:01:14;;;;;;;11.18;3.70;;;;;;;6.13;87.82;100346.44;5110180;28;20048;-75
2023/12/12 10:03:41;;;;;;;16.48;4.65;;;;;;;5.89;89.04;100349.16;5109976;28;20043;-75
2023/12/12 10:06:09;;;;;;;7.50;3.30;;;;;;;5.93;89.03;100345.25;5113279;28;20107;-74
2023/12/12 10:08:35;;;;;;;10.63;3.70;;;;;;;5.94;88.95;100346.13;5113490;28;20055;-74
2023/12/12 10:11:05;;;;;;;12.18;3.63;;;;;;;5.85;89.18;100348.50;5113745;28;20065;-74
2023/12/12 10:13:54;;;;;;;13.75;3.88;;;;;;;5.94;88.94;100351.50;5096293;28;20040;-74
2023/12/12 10:16:21;;;;;;;10.15;3.95;;;;;;;5.86;89.26;100341.28;5113661;27;20517;-74
2023/12/12 10:18:50;;;;;;;10.65;3.80;;;;;;;5.82;90.21;100338.00;5114034;28;20073;-75
2023/12/12 10:21:21;;;;;;;18.45;4.10;;;;;;;5.69;90.53;100337.16;5113581;28;20440;-75
2023/12/12 10:23:52;;;;;;;9.73;4.20;;;;;;;5.69;90.83;100337.16;5114296;28;20039;-74
2023/12/12 10:26:30;;;;;;;18.87;5.60;;;;;;;5.83;90.10;100339.69;5114019;28;20051;-74
2023/12/12 10:28:58;;;;;;;15.57;3.67;;;;;;;5.87;89.89;100334.94;5094913;28;20456;-75
2023/12/12 10:31:26;;;;;;;19.02;5.28;;;;;;;5.80;90.54;100334.56;5112857;28;20043;-74
2023/12/12 10:33:56;;;;;;;16.27;4.60;;;;;;;5.90;90.03;100337.41;5113569;28;20487;-74
2023/12/12 10:36:24;;;;;;;20.98;5.35;;;;;;;5.93;89.98;100321.03;5112790;28;20096;-74
2023/12/12 10:38:52;;;;;;;14.32;4.63;;;;;;;5.91;90.28;100319.44;5113383;28;20039;-74
2023/12/12 10:41:19;;;;;;;11.27;4.15;;;;;;;6.07;89.54;100314.59;5113557;28;20044;-74
2023/12/12 10:43:51;;;;;;;14.73;4.00;;;;;;;6.07;88.81;100311.88;5096020;28;20082;-75
2023/12/12 10:46:19;;;;;;;14.70;3.80;;;;;;;6.12;88.64;100313.28;5113398;28;20040;-73
2023/12/12 10:48:52;;;;;;;10.35;3.70;;;;;;;6.38;88.10;100313.97;5112497;27;20040;-74
2023/12/12 10:51:19;;;;;;;13.38;3.92;;;;;;;6.55;86.68;100306.41;5112112;28;20130;-73
2023/12/12 10:53:48;;;;;;;13.80;4.50;;;;;;;6.42;86.26;100310.03;5112452;28;20043;-75
2023/12/12 10:56:17;;;;;;;11.90;4.20;;;;;;;6.56;86.40;100302.75;5112593;28;20054;-75
2023/12/12 10:58:43;;;;;;;14.43;3.97;;;;;;;6.69;85.43;100300.78;5112812;28;20392;-75
2023/12/12 11:01:13;;;;;;;14.55;4.38;;;;;;;6.57;85.39;100301.75;5112518;28;20047;-75
2023/12/12 11:03:41;;;;;;;15.13;3.10;;;;;;;6.81;83.84;100299.81;5122734;28;20066;-71
2023/12/12 11:06:09;;;;;;;13.60;4.38;;;;;;;6.80;84.00;100298.09;5130176;28;20054;-73
2023/12/12 11:08:36;;;;;;;9.07;3.42;;;;;;;7.02;83.74;100291.00;5132457;28;20043;-72
2023/12/12 11:11:09;;;;;;;14.38;3.97;;;;;;;7.24;83.50;100288.28;5129984;28;20112;-70
2023/12/12 11:13:38;;;;;;;10.38;3.35;;;;;;;7.42;81.29;100294.91;5125897;28;20043;-70
2023/12/12 11:16:07;;;;;;;15.25;3.53;;;;;;;7.61;80.83;100275.34;5124049;28;20135;-69
2023/12/12 11:18:39;;;;;;;11.60;3.85;;;;;;;7.84;79.41;100273.41;5125770;28;20051;-70
2023/12/12 11:21:06;;;;;;;;;;;;;;;7.92;79.20;100281.72;5110564;28;20057;-70
2023/12/12 11:23:45;;;;;;;13.43;3.00;;;;;;;8.10;79.02;100282.03;5126497;28;20318;-70
2023/12/12 11:26:15;;;;;;;12.90;3.30;;;;;;;8.03;78.63;100270.91;5127033;28;20104;-69
2023/12/12 11:28:42;;;;;;;14.15;4.40;;;;;;;7.96;77.46;100272.41;5125413;28;20036;-69
2023/12/12 11:31:09;;;;;;;17.42;4.35;;;;;;;7.96;76.88;100271.53;5125918;28;20051;-69